createdAt,value
2023-04-11T00:01:43.649Z,7.73
2023-04-11T00:06:49.062Z,7.43
2023-04-11T00:11:57.219Z,7.60
2023-04-11T00:17:06.251Z,6.73
2023-04-11T00:22:11.661Z,8.00
2023-04-11T00:27:16.736Z,7.17
2023-04-11T00:32:26.797Z,8.13
2023-04-11T00:37:36.646Z,7.53
2023-04-11T00:42:42.051Z,7.80
2023-04-11T00:47:50.043Z,7.73
2023-04-11T00:52:57.119Z,7.67
2023-04-11T00:58:02.430Z,7.67
2023-04-11T01:03:10.431Z,7.50
2023-04-11T01:08:16.838Z,7.33
2023-04-11T01:13:22.937Z,7.53
2023-04-11T01:18:30.929Z,7.47
2023-04-11T01:23:38.734Z,8.73
2023-04-11T01:28:43.856Z,7.37
2023-04-11T01:33:50.288Z,8.10
2023-04-11T01:38:58.529Z,7.27
2023-04-11T01:44:04.234Z,8.10
2023-04-11T01:49:10.734Z,8.53
2023-04-11T01:54:18.495Z,7.37
2023-04-11T01:59:24.416Z,8.47
2023-04-11T02:04:30.118Z,7.80
2023-04-11T02:09:37.930Z,7.77
2023-04-11T02:14:45.176Z,7.10
2023-04-11T02:19:52.133Z,7.07
2023-04-11T02:24:59.994Z,7.13
2023-04-11T02:30:06.322Z,7.23
2023-04-11T02:35:14.168Z,6.83
2023-04-11T02:40:22.493Z,8.00
2023-04-11T02:45:33.527Z,7.23
2023-04-11T02:50:41.384Z,7.30
2023-04-11T02:55:50.563Z,7.63
2023-04-11T03:00:56.567Z,6.43
2023-04-11T03:06:02.318Z,7.10
2023-04-11T03:11:11.328Z,7.17
2023-04-11T03:16:16.921Z,6.13
2023-04-11T03:21:22.294Z,6.77
2023-04-11T03:26:30.729Z,7.10
2023-04-11T03:31:40.530Z,7.40
2023-04-11T03:36:45.893Z,7.13
2023-04-11T03:41:54.412Z,7.33
2023-04-11T03:46:59.720Z,7.33
2023-04-11T03:52:17.900Z,8.20
2023-04-11T03:57:29.713Z,7.70
2023-04-11T04:02:36.716Z,8.13
2023-04-11T04:07:45.317Z,8.07
2023-04-11T04:13:02.080Z,7.63
2023-04-11T04:18:14.380Z,8.00
2023-04-11T04:23:26.280Z,8.80
2023-04-11T04:29:04.642Z,9.60
2023-04-11T04:34:24.942Z,7.73
2023-04-11T04:39:34.286Z,8.73
2023-04-11T04:44:43.743Z,8.65
2023-04-11T04:49:58.679Z,8.97
2023-04-11T04:55:04.137Z,8.80
2023-04-11T05:00:14.146Z,9.53
2023-04-11T05:05:22.697Z,9.90
2023-04-11T05:10:28.240Z,10.37
2023-04-11T05:15:37.004Z,10.07
2023-04-11T05:20:42.240Z,11.73
2023-04-11T05:25:51.191Z,11.47
2023-04-11T05:31:01.757Z,10.73
2023-04-11T05:36:08.651Z,10.40
2023-04-11T05:41:14.849Z,11.17
2023-04-11T05:46:23.169Z,11.23
2023-04-11T05:51:29.083Z,11.50
2023-04-11T05:56:59.206Z,11.90
2023-04-11T06:02:14.671Z,11.73
2023-04-11T06:07:24.063Z,11.20
2023-04-11T06:12:45.262Z,13.33
2023-04-11T06:17:57.395Z,13.30
2023-04-11T06:23:15.647Z,14.33
2023-04-11T06:28:24.899Z,12.60
2023-04-11T06:33:37.585Z,12.37
2023-04-11T06:38:43.558Z,13.73
2023-04-11T06:43:51.541Z,12.07
2023-04-11T06:49:07.578Z,11.77
2023-04-11T06:54:16.606Z,12.03
2023-04-11T06:59:34.313Z,11.50
2023-04-11T07:04:47.865Z,11.23
2023-04-11T07:10:02.803Z,10.90
2023-04-11T07:15:10.775Z,12.93
2023-04-11T07:20:19.657Z,10.37
2023-04-11T07:25:35.137Z,11.53
2023-04-11T07:30:41.474Z,9.17
2023-04-11T07:35:51.103Z,10.33
2023-04-11T07:41:02.948Z,8.63
2023-04-11T07:46:09.681Z,9.70
2023-04-11T07:51:19.156Z,8.67
2023-04-11T07:56:24.436Z,7.60
2023-04-11T08:01:39.214Z,7.47
2023-04-11T08:06:58.841Z,6.77
2023-04-11T08:12:15.152Z,8.57
2023-04-11T08:17:28.302Z,6.70
2023-04-11T08:22:45.255Z,5.97
2023-04-11T08:27:51.714Z,6.90
2023-04-11T08:32:58.228Z,7.17
2023-04-11T08:38:09.334Z,5.27
2023-04-11T08:43:20.738Z,4.63
2023-04-11T08:48:28.101Z,5.03
2023-04-11T08:53:54.471Z,4.90
2023-04-11T08:59:07.295Z,4.30
2023-04-11T09:04:27.615Z,3.53
2023-04-11T09:09:51.838Z,4.77
2023-04-11T09:14:57.556Z,5.10
2023-04-11T09:20:19.308Z,4.23
2023-04-11T09:25:35.375Z,4.47
2023-04-11T09:30:52.901Z,3.60
2023-04-11T09:36:04.437Z,3.00
2023-04-11T09:41:15.403Z,2.43
2023-04-11T09:46:28.447Z,2.57
2023-04-11T09:51:37.024Z,2.80
2023-04-11T09:56:46.289Z,2.93
2023-04-11T10:02:04.093Z,2.93
2023-04-11T10:07:17.306Z,3.17
2023-04-11T10:12:37.737Z,3.20
2023-04-11T10:17:48.280Z,2.83
2023-04-11T10:23:04.384Z,3.83
2023-04-11T10:28:32.314Z,3.47
2023-04-11T10:33:39.039Z,3.10
2023-04-11T10:38:53.072Z,2.80
2023-04-11T10:44:25.464Z,2.63
2023-04-11T10:49:39.062Z,2.83
2023-04-11T10:54:45.699Z,2.60
2023-04-11T11:00:19.324Z,2.80
2023-04-11T11:05:27.188Z,3.40
2023-04-11T11:10:50.434Z,2.20
2023-04-11T11:16:06.769Z,1.63
2023-04-11T11:21:26.526Z,2.07
2023-04-11T11:26:43.942Z,1.77
2023-04-11T11:31:53.918Z,2.40
2023-04-11T11:37:05.293Z,1.93
2023-04-11T11:42:13.211Z,2.00
2023-04-11T11:47:23.307Z,1.57
2023-04-11T11:52:37.975Z,2.00
2023-04-11T11:57:50.114Z,1.80
2023-04-11T12:03:03.310Z,1.40
2023-04-11T12:08:10.929Z,2.77
2023-04-11T12:13:30.341Z,2.30
2023-04-11T12:18:38.625Z,1.97
2023-04-11T12:23:44.571Z,2.30
2023-04-11T12:28:51.059Z,1.90
2023-04-11T12:33:59.262Z,1.63
2023-04-11T12:39:04.664Z,1.97
2023-04-11T12:44:13.741Z,1.80
2023-04-11T12:49:22.713Z,2.17
2023-04-11T12:54:29.775Z,2.80
2023-04-11T12:59:36.079Z,1.60
2023-04-11T13:04:56.249Z,2.00
2023-04-11T13:10:02.024Z,1.97
2023-04-11T13:15:19.842Z,3.23
2023-04-11T13:20:33.817Z,3.90
2023-04-11T13:25:39.275Z,2.10
2023-04-11T13:30:46.325Z,1.90
2023-04-11T13:36:01.988Z,1.83
2023-04-11T13:41:13.790Z,2.50
2023-04-11T13:46:23.523Z,2.97
2023-04-11T13:51:33.563Z,2.37
2023-04-11T13:56:39.126Z,1.77
2023-04-11T14:01:52.302Z,1.77
2023-04-11T14:07:02.222Z,1.60
2023-04-11T14:12:07.881Z,1.93
2023-04-11T14:17:14.042Z,2.07
2023-04-11T14:22:27.944Z,2.40
2023-04-11T14:27:34.928Z,2.80
2023-04-11T14:32:40.289Z,2.70
2023-04-11T14:37:52.482Z,2.60
2023-04-11T14:42:59.388Z,2.10
2023-04-11T14:48:15.172Z,3.10
2023-04-11T14:53:25.795Z,3.10
2023-04-11T14:58:33.862Z,2.50
2023-04-11T15:03:39.292Z,1.37
2023-04-11T15:08:52.653Z,1.20
2023-04-11T15:14:03.709Z,1.37
2023-04-11T15:19:11.465Z,1.00
2023-04-11T15:24:22.578Z,1.30
2023-04-11T15:29:27.956Z,0.90
2023-04-11T15:34:40.558Z,1.10
2023-04-11T15:39:54.102Z,1.10
2023-04-11T15:45:04.128Z,1.37
2023-04-11T15:50:13.718Z,0.97
2023-04-11T15:55:23.802Z,1.27
2023-04-11T16:00:29.661Z,1.13
2023-04-11T16:05:42.013Z,4.90
2023-04-11T16:10:52.095Z,2.23
2023-04-11T16:16:02.163Z,2.20
2023-04-11T16:21:16.058Z,2.13
2023-04-11T16:26:24.742Z,9.03
2023-04-11T16:31:30.038Z,2.03
2023-04-11T16:36:35.746Z,1.67
2023-04-11T16:41:45.942Z,1.93
2023-04-11T16:46:52.861Z,1.93
2023-04-11T16:51:58.357Z,2.03
2023-04-11T16:57:09.058Z,1.77
2023-04-11T17:02:14.740Z,1.60
2023-04-11T17:07:20.421Z,1.30
2023-04-11T17:12:34.678Z,1.40
2023-04-11T17:17:40.416Z,1.10
2023-04-11T17:22:47.519Z,1.30
2023-04-11T17:27:57.434Z,1.53
2023-04-11T17:33:04.966Z,1.70
2023-04-11T17:38:10.895Z,1.40
2023-04-11T17:43:19.251Z,1.70
2023-04-11T17:48:25.596Z,1.80
2023-04-11T17:53:31.242Z,1.97
2023-04-11T17:58:45.299Z,1.90
2023-04-11T18:03:52.897Z,1.50
2023-04-11T18:09:04.693Z,2.13
2023-04-11T18:14:12.741Z,2.00
2023-04-11T18:19:18.242Z,1.70
2023-04-11T18:24:23.879Z,1.90
2023-04-11T18:29:32.762Z,3.90
2023-04-11T18:34:38.693Z,2.93
2023-04-11T18:39:44.406Z,1.80
2023-04-11T18:44:59.500Z,1.80
2023-04-11T18:50:06.105Z,1.60
2023-04-11T18:55:13.922Z,1.77
2023-04-11T19:00:25.726Z,1.90
2023-04-11T19:05:36.874Z,1.73
2023-04-11T19:10:43.681Z,1.57
2023-04-11T19:15:54.441Z,1.53
2023-04-11T19:21:08.223Z,2.83
2023-04-11T19:26:14.225Z,1.97
2023-04-11T19:31:29.223Z,2.63
2023-04-11T19:36:41.038Z,2.20
2023-04-11T19:41:57.118Z,1.67
2023-04-11T19:47:15.763Z,2.20
2023-04-11T19:52:32.731Z,2.13
2023-04-11T19:57:44.091Z,2.03
2023-04-11T20:02:55.273Z,2.00
2023-04-11T20:08:12.493Z,4.37
2023-04-11T20:13:21.817Z,2.23
2023-04-11T20:18:30.795Z,2.60
2023-04-11T20:23:42.220Z,1.97
2023-04-11T20:28:52.976Z,1.87
2023-04-11T20:34:02.895Z,1.87
2023-04-11T20:39:09.441Z,2.00
2023-04-11T20:44:24.113Z,1.80
2023-04-11T20:49:34.892Z,2.13
2023-04-11T20:54:43.124Z,2.00
2023-04-11T20:59:52.994Z,2.40
2023-04-11T21:05:03.788Z,3.27
2023-04-11T21:10:10.959Z,2.90
2023-04-11T21:15:17.464Z,2.47
2023-04-11T21:20:37.597Z,2.73
2023-04-11T21:25:43.953Z,2.57
2023-04-11T21:30:49.414Z,2.77
2023-04-11T21:36:03.540Z,3.63
2023-04-11T21:41:09.458Z,2.97
2023-04-11T21:46:15.873Z,3.33
2023-04-11T21:51:25.248Z,3.70
2023-04-11T21:56:33.607Z,4.03
2023-04-11T22:01:39.192Z,4.27
2023-04-11T22:06:49.479Z,4.00
2023-04-11T22:11:55.187Z,4.57
2023-04-11T22:17:01.314Z,3.60
2023-04-11T22:22:11.717Z,3.50
2023-04-11T22:27:19.777Z,4.87
2023-04-11T22:32:26.925Z,5.20
2023-04-11T22:37:37.709Z,4.20
2023-04-11T22:42:48.390Z,4.93
2023-04-11T22:47:57.452Z,4.93
2023-04-11T22:53:05.882Z,3.93
2023-04-11T22:58:11.592Z,4.20
2023-04-11T23:03:23.440Z,3.97
2023-04-11T23:08:34.126Z,3.87
2023-04-11T23:13:47.458Z,4.20
2023-04-11T23:18:52.837Z,3.47
2023-04-11T23:24:03.420Z,3.73
2023-04-11T23:29:12.138Z,4.70
2023-04-11T23:34:17.810Z,4.23
2023-04-11T23:39:31.481Z,4.30
2023-04-11T23:44:41.703Z,4.60
2023-04-11T23:50:18.471Z,4.40
2023-04-11T23:55:33.253Z,4.73
